Aérodrome :
LOGIN :

S'inscrire | Disclaimer

   EN    FR    IT 

 










Légende :    VFR   VFR Marginal   IFR   IFR Intensif   IFR Très Intensif
Visi : 
Plafond : 
>= 8 km
>= 3000ft
5 à 8 km
1000 à 3000 ft
1500m à 5 km
500 à 1000 ft
800 à 1500m
200 à 500 ft
< 800m
< 200 ft
Symboles :   Orages  Brouillard  Fortes neiges  Fortes précipitations  Vent > 20 kt
SIGMETs :   Divers  Orages  Givrage  Turbulence  Onde Orograph.  Cendres Volcan.







- Altitude de l'aérodrome : 122 ft
- Code IATA : TXL


EDDT - Berlin Tegel Int.

DERNIER METAR :
  • 231220Z 29008KT 260V320 9999 FEW045 17/06 Q1018 NOSIG

METARs EXPIRÉS :
  • 231150Z 28008KT 240V320 9999 FEW045 17/06 Q1018 NOSIG
  • 231120Z 27007KT 220V320 9999 FEW045 17/06 Q1018 NOSIG
  • 231050Z 28010KT 240V320 9999 FEW045 16/05 Q1018 NOSIG
  • 231020Z 27007KT 230V320 9999 FEW040 17/07 Q1018 NOSIG
  • 230950Z 29008KT 240V330 9999 FEW040 16/05 Q1018 NOSIG

TAF TAF EDDT
Valide du 23 à 12h jusqu'au 24 à 12h UTC


231100Z 2312/2412 30008KT CAVOK
BECMG 2316/2319 VRB03KT
BECMG 2405/2408 24008KT
Pas de NOTAMs connus pour ce terrain.



MET'MAP, la Météo Aéronautique d'un coup d'oeil ! - Copyright ORBIFLY Décembre 2007 - Disclaimer

ORBIFLY MET'MAP TEAM :

Programmation & Développement : Alexandra Zaïnal
Conception & Développement : Baudouin d'Aumeries
Co-Programmation & Développement : Marc-Olivier Méhu
Soutien technique & logistique : Manuel Goepfert

Contact : metmap@orbifly.com




SOURCES & CREDITS :

   NOAA